createdAt,value
2022-08-17T00:01:30.164Z,7.63
2022-08-17T00:04:19.326Z,6.90
2022-08-17T00:06:49.567Z,11.02
2022-08-17T00:09:18.648Z,9.35
2022-08-17T00:12:40.764Z,7.55
2022-08-17T00:14:33.360Z,8.80
2022-08-17T00:16:59.947Z,6.22
2022-08-17T00:19:26.805Z,5.57
2022-08-17T00:22:30.877Z,8.32
2022-08-17T00:24:42.922Z,9.50
2022-08-17T00:27:09.476Z,10.70
2022-08-17T00:29:36.410Z,9.55
2022-08-17T00:33:14.542Z,8.75
2022-08-17T00:34:50.274Z,7.80
2022-08-17T00:37:16.824Z,6.50
2022-08-17T00:39:43.736Z,8.25
2022-08-17T00:42:14.350Z,8.80
2022-08-17T00:44:40.939Z,9.73
2022-08-17T00:47:07.611Z,8.45
2022-08-17T00:49:34.228Z,6.28
2022-08-17T00:52:10.008Z,6.38
2022-08-17T00:54:41.807Z,8.82
2022-08-17T00:57:12.661Z,9.30
2022-08-17T00:59:40.858Z,7.95
2022-08-17T01:02:08.918Z,10.25
2022-08-17T01:04:38.035Z,9.27
2022-08-17T01:07:05.906Z,8.25
2022-08-17T01:09:33.199Z,10.20
2022-08-17T01:12:00.124Z,11.57
2022-08-17T01:14:26.818Z,7.80
2022-08-17T01:16:54.797Z,7.03
2022-08-17T01:19:23.085Z,7.85
2022-08-17T01:22:19.169Z,7.40
2022-08-17T01:24:48.382Z,8.95
2022-08-17T01:27:15.722Z,11.73
2022-08-17T01:29:48.034Z,7.45
2022-08-17T01:32:14.873Z,7.15
2022-08-17T01:34:43.424Z,8.95
2022-08-17T01:37:11.139Z,11.35
2022-08-17T01:39:50.597Z,7.75
2022-08-17T01:42:26.529Z,8.43
2022-08-17T01:44:56.588Z,8.75
2022-08-17T01:47:23.493Z,9.13
2022-08-17T01:49:50.766Z,6.32
2022-08-17T01:52:17.746Z,10.88
2022-08-17T01:54:45.787Z,10.43
2022-08-17T01:57:12.708Z,8.60
2022-08-17T01:59:39.363Z,7.32
2022-08-17T02:02:07.338Z,7.88
2022-08-17T02:04:34.576Z,8.30
2022-08-17T02:07:01.204Z,8.75
2022-08-17T02:09:29.852Z,12.20
2022-08-17T02:11:58.152Z,9.63
2022-08-17T02:14:25.244Z,10.45
2022-08-17T02:16:52.146Z,6.75
2022-08-17T02:19:19.081Z,7.43
2022-08-17T02:21:46.887Z,10.10
2022-08-17T02:24:16.895Z,9.25
2022-08-17T02:26:43.728Z,9.68
2022-08-17T02:29:10.391Z,8.50
2022-08-17T02:31:37.845Z,12.13
2022-08-17T02:34:05.435Z,8.15
2022-08-17T02:36:38.773Z,8.93
2022-08-17T02:39:06.523Z,9.70
2022-08-17T02:41:33.664Z,8.45
2022-08-17T02:44:02.786Z,8.48
2022-08-17T02:46:30.448Z,7.28
2022-08-17T02:48:57.039Z,9.48
2022-08-17T02:51:23.736Z,9.93
2022-08-17T02:53:50.498Z,10.65
2022-08-17T02:56:17.289Z,8.43
2022-08-17T02:58:43.953Z,13.20
2022-08-17T03:01:10.806Z,9.63
2022-08-17T03:03:38.108Z,8.32
2022-08-17T03:06:05.308Z,14.63
2022-08-17T03:08:31.912Z,10.52
2022-08-17T03:10:58.472Z,9.73
2022-08-17T03:13:25.330Z,11.23
2022-08-17T03:15:52.101Z,8.15
2022-08-17T03:18:25.755Z,7.95
2022-08-17T03:20:53.915Z,9.63
2022-08-17T03:23:23.932Z,7.00
2022-08-17T03:25:52.979Z,10.13
2022-08-17T03:28:22.829Z,8.77
2022-08-17T03:30:51.179Z,9.07
2022-08-17T03:33:18.404Z,7.65
2022-08-17T03:35:45.450Z,8.38
2022-08-17T03:38:14.955Z,9.57
2022-08-17T03:40:56.648Z,11.07
2022-08-17T03:43:26.936Z,8.93
2022-08-17T03:46:34.315Z,10.00
2022-08-17T03:49:18.021Z,9.18
2022-08-17T03:52:03.523Z,9.70
2022-08-17T03:54:48.911Z,9.00
2022-08-17T03:57:16.497Z,8.65
2022-08-17T03:59:43.149Z,10.00
2022-08-17T04:02:17.571Z,6.32
2022-08-17T04:04:50.823Z,6.50
2022-08-17T04:07:18.650Z,9.48
2022-08-17T04:09:45.267Z,6.60
2022-08-17T04:12:14.160Z,7.30
2022-08-17T04:14:53.223Z,8.70
2022-08-17T04:17:21.315Z,8.00
2022-08-17T04:19:47.885Z,9.95
2022-08-17T04:22:31.159Z,9.05
2022-08-17T04:25:15.752Z,10.23
2022-08-17T04:27:42.519Z,8.90
2022-08-17T04:30:09.821Z,10.27
2022-08-17T04:33:04.319Z,8.80
2022-08-17T04:35:37.609Z,7.55
2022-08-17T04:38:04.351Z,11.90
2022-08-17T04:40:50.002Z,12.30
2022-08-17T04:43:18.848Z,9.95
2022-08-17T04:46:02.047Z,8.52
2022-08-17T04:48:36.338Z,8.50
2022-08-17T04:51:26.329Z,13.73
2022-08-17T04:53:55.206Z,9.88
2022-08-17T04:56:25.885Z,13.30
2022-08-17T04:58:53.751Z,10.20
2022-08-17T05:01:24.071Z,8.15
2022-08-17T05:03:54.806Z,8.82
2022-08-17T05:06:22.146Z,8.65
2022-08-17T05:08:48.859Z,9.82
2022-08-17T05:11:15.769Z,8.02
2022-08-17T05:13:42.601Z,13.10
2022-08-17T05:16:09.243Z,8.75
2022-08-17T05:18:37.272Z,7.80
2022-08-17T05:21:04.032Z,8.93
2022-08-17T05:23:33.700Z,7.63
2022-08-17T05:26:01.724Z,7.55
2022-08-17T05:28:30.895Z,8.25
2022-08-17T05:30:59.348Z,7.30
2022-08-17T05:33:27.379Z,9.48
2022-08-17T05:35:55.902Z,10.25
2022-08-17T05:38:23.392Z,10.02
2022-08-17T05:40:50.058Z,8.70
2022-08-17T05:43:16.600Z,6.93
2022-08-17T05:45:55.430Z,10.15
2022-08-17T05:48:36.776Z,9.23
2022-08-17T05:51:06.841Z,9.95
2022-08-17T05:53:43.701Z,8.40
2022-08-17T05:56:22.674Z,11.73
2022-08-17T05:59:05.165Z,10.15
2022-08-17T06:01:47.679Z,8.30
2022-08-17T06:04:46.899Z,10.85
2022-08-17T06:07:36.666Z,10.30
2022-08-17T06:10:06.067Z,13.25
2022-08-17T06:12:32.607Z,11.05
2022-08-17T06:14:59.702Z,14.30
2022-08-17T06:17:27.172Z,12.45
2022-08-17T06:19:59.777Z,23.42
2022-08-17T06:22:29.085Z,11.13
2022-08-17T06:25:01.940Z,14.45
2022-08-17T06:27:30.309Z,13.25
2022-08-17T06:29:56.917Z,11.95
2022-08-17T06:32:24.038Z,12.50
2022-08-17T06:34:51.472Z,11.10
2022-08-17T06:37:32.632Z,16.85
2022-08-17T06:40:19.586Z,13.85
2022-08-17T06:43:06.430Z,12.38
2022-08-17T06:45:35.688Z,13.73
2022-08-17T06:48:07.188Z,15.45
2022-08-17T06:50:40.687Z,15.15
2022-08-17T06:53:22.422Z,16.30
2022-08-17T06:55:51.970Z,13.65
2022-08-17T06:58:23.639Z,18.02
2022-08-17T07:00:59.563Z,11.60
2022-08-17T07:03:26.259Z,16.48
2022-08-17T07:05:54.303Z,13.70
2022-08-17T07:08:44.296Z,12.68
2022-08-17T07:11:19.360Z,15.68
2022-08-17T07:13:50.520Z,14.27
2022-08-17T07:16:18.423Z,15.98
2022-08-17T07:18:48.480Z,20.63
2022-08-17T07:21:30.621Z,15.73
2022-08-17T07:24:29.584Z,21.45
2022-08-17T07:27:08.308Z,26.85
2022-08-17T07:29:41.009Z,19.30
2022-08-17T07:32:08.575Z,25.33
2022-08-17T07:34:53.971Z,21.50
2022-08-17T07:37:20.807Z,20.75
2022-08-17T07:40:14.835Z,17.15
2022-08-17T07:42:34.447Z,17.52
2022-08-17T07:45:25.015Z,20.98
2022-08-17T07:48:24.094Z,21.25
2022-08-17T07:50:53.243Z,20.48
2022-08-17T07:53:23.256Z,23.25
2022-08-17T07:55:50.552Z,20.85
2022-08-17T07:58:18.458Z,21.98
2022-08-17T08:00:45.663Z,19.67
2022-08-17T08:03:13.318Z,20.02
2022-08-17T08:05:50.603Z,18.98
2022-08-17T08:08:36.084Z,18.02
2022-08-17T08:11:02.653Z,17.05
2022-08-17T08:13:30.359Z,19.45
2022-08-17T08:16:11.758Z,16.13
2022-08-17T08:18:55.886Z,22.92
2022-08-17T08:21:24.362Z,22.75
2022-08-17T08:24:01.316Z,20.65
2022-08-17T08:26:41.838Z,15.32
2022-08-17T08:29:28.266Z,19.10
2022-08-17T08:32:18.257Z,20.88
2022-08-17T08:35:04.135Z,19.77
2022-08-17T08:37:43.540Z,20.02
2022-08-17T08:40:21.633Z,18.13
2022-08-17T08:42:50.944Z,16.60
2022-08-17T08:45:24.649Z,21.40
2022-08-17T08:48:12.733Z,26.17
2022-08-17T08:50:57.414Z,21.95
2022-08-17T08:53:30.888Z,23.73
2022-08-17T08:56:04.676Z,20.10
2022-08-17T08:59:10.472Z,23.17
2022-08-17T09:01:39.850Z,22.15
2022-08-17T09:04:23.440Z,19.70
2022-08-17T09:06:59.510Z,20.60
2022-08-17T09:09:36.296Z,22.50
2022-08-17T09:12:11.362Z,18.25
2022-08-17T09:14:46.674Z,21.23
2022-08-17T09:17:19.344Z,21.65
2022-08-17T09:19:55.418Z,23.70
2022-08-17T09:22:32.419Z,17.50
2022-08-17T09:25:18.370Z,22.00
2022-08-17T09:28:00.544Z,18.30
2022-08-17T09:30:29.931Z,19.45
2022-08-17T09:32:58.834Z,17.73
2022-08-17T09:35:36.862Z,23.40
2022-08-17T09:38:10.102Z,18.75
2022-08-17T09:40:43.328Z,24.02
2022-08-17T09:43:18.765Z,27.33
2022-08-17T09:45:50.597Z,21.20
2022-08-17T09:48:35.987Z,20.60
2022-08-17T09:51:22.801Z,25.42
2022-08-17T09:53:50.282Z,22.23
2022-08-17T09:56:24.105Z,23.63
2022-08-17T10:01:21.116Z,26.15
2022-08-17T10:04:05.353Z,21.42
2022-08-17T10:09:07.403Z,31.85
2022-08-17T10:11:57.503Z,22.08
2022-08-17T10:14:44.412Z,26.00
2022-08-17T10:17:15.416Z,32.05
2022-08-17T10:19:51.528Z,28.23
2022-08-17T10:23:02.974Z,29.02
2022-08-17T10:25:59.657Z,25.50
2022-08-17T10:28:30.395Z,28.45
2022-08-17T10:31:23.290Z,28.10
2022-08-17T10:34:00.918Z,34.05
2022-08-17T10:36:40.180Z,27.73
2022-08-17T10:39:12.629Z,29.95
2022-08-17T10:41:41.586Z,28.05
2022-08-17T10:44:40.517Z,27.30
2022-08-17T10:47:07.141Z,31.23
2022-08-17T10:49:38.037Z,31.23
2022-08-17T10:52:20.263Z,34.85
2022-08-17T10:54:48.040Z,28.88
2022-08-17T10:57:27.168Z,29.45
2022-08-17T10:59:54.746Z,28.67
2022-08-17T11:02:41.547Z,30.88
2022-08-17T11:05:11.335Z,26.27
2022-08-17T11:07:58.597Z,25.85
2022-08-17T11:10:46.444Z,26.40
2022-08-17T11:13:29.426Z,25.65
2022-08-17T11:16:08.959Z,21.40
2022-08-17T11:18:46.911Z,23.17
2022-08-17T11:21:21.935Z,23.88
2022-08-17T11:23:57.306Z,21.77
2022-08-17T11:26:29.656Z,20.58
2022-08-17T11:29:01.425Z,17.30
2022-08-17T11:31:39.138Z,22.20
2022-08-17T11:34:06.689Z,18.70
2022-08-17T11:36:33.180Z,23.60
2022-08-17T11:39:02.487Z,21.85
2022-08-17T11:41:36.029Z,17.90
2022-08-17T11:44:26.486Z,17.95
2022-08-17T11:47:29.268Z,18.77
2022-08-17T11:50:22.451Z,18.23
2022-08-17T11:52:51.132Z,19.80
2022-08-17T11:55:38.257Z,17.33
2022-08-17T11:58:18.102Z,17.38
2022-08-17T12:00:44.650Z,21.13
2022-08-17T12:03:26.610Z,18.08
2022-08-17T12:06:04.060Z,16.88
2022-08-17T12:08:32.639Z,18.25
2022-08-17T12:12:11.161Z,20.55
2022-08-17T12:14:19.180Z,16.95
2022-08-17T12:17:01.384Z,21.25
2022-08-17T12:19:29.639Z,21.58
2022-08-17T12:22:05.275Z,17.73
2022-08-17T12:24:37.784Z,22.20
2022-08-17T12:27:06.288Z,16.45
2022-08-17T12:29:35.561Z,15.60
2022-08-17T12:32:07.054Z,20.45
2022-08-17T12:34:41.494Z,17.33
2022-08-17T12:37:15.180Z,17.30
2022-08-17T12:39:52.884Z,16.92
2022-08-17T12:42:31.141Z,16.02
2022-08-17T12:44:58.319Z,19.55
2022-08-17T12:47:25.411Z,13.55
2022-08-17T12:50:05.677Z,15.27
2022-08-17T12:52:35.628Z,14.73
2022-08-17T12:55:06.318Z,14.57
2022-08-17T12:57:39.190Z,15.02
2022-08-17T13:00:09.368Z,14.07
2022-08-17T13:02:41.470Z,10.95
2022-08-17T13:05:14.408Z,12.10
2022-08-17T13:07:42.642Z,12.40
2022-08-17T13:10:15.765Z,14.43
2022-08-17T13:12:42.961Z,12.37
2022-08-17T13:15:17.040Z,12.48
2022-08-17T13:17:44.399Z,11.52
2022-08-17T13:20:14.831Z,12.02
2022-08-17T13:22:43.412Z,11.23
2022-08-17T13:25:15.948Z,14.48
2022-08-17T13:27:43.263Z,11.38
2022-08-17T13:30:12.116Z,10.40
2022-08-17T13:32:45.027Z,11.23
2022-08-17T13:35:32.803Z,10.15
2022-08-17T13:38:09.337Z,8.85
2022-08-17T13:40:39.581Z,9.45
2022-08-17T13:43:06.282Z,9.05
2022-08-17T13:45:50.770Z,9.23
2022-08-17T13:48:23.859Z,9.27
2022-08-17T13:50:56.288Z,10.32
2022-08-17T13:53:25.471Z,10.35
2022-08-17T13:55:53.885Z,11.07
2022-08-17T13:58:22.472Z,8.73
2022-08-17T14:00:50.651Z,9.60
2022-08-17T14:03:17.681Z,8.88
2022-08-17T14:05:46.008Z,8.50
2022-08-17T14:08:14.320Z,10.15
2022-08-17T14:10:41.054Z,9.55
2022-08-17T14:13:07.934Z,8.35
2022-08-17T14:15:56.319Z,10.02
2022-08-17T14:18:55.412Z,10.40
2022-08-17T14:21:09.361Z,12.35
2022-08-17T14:23:36.937Z,9.65
2022-08-17T14:26:03.571Z,9.80
2022-08-17T14:28:30.213Z,14.20
2022-08-17T14:30:58.759Z,10.05
2022-08-17T14:33:25.367Z,13.23
2022-08-17T14:35:53.550Z,14.73
2022-08-17T14:38:20.636Z,14.35
2022-08-17T14:40:48.786Z,15.35
2022-08-17T14:43:16.008Z,17.90
2022-08-17T14:45:42.946Z,17.95
2022-08-17T14:48:09.828Z,18.13
2022-08-17T14:50:38.345Z,18.83
2022-08-17T14:53:05.975Z,19.85
2022-08-17T14:55:32.762Z,21.88
2022-08-17T14:57:59.324Z,19.98
2022-08-17T15:00:26.970Z,22.02
2022-08-17T15:02:55.026Z,21.33
2022-08-17T15:05:22.985Z,19.88
2022-08-17T15:07:49.890Z,21.98
2022-08-17T15:10:17.693Z,21.63
2022-08-17T15:12:44.307Z,21.02
2022-08-17T15:15:12.448Z,21.13
2022-08-17T15:17:44.316Z,20.58
2022-08-17T15:20:16.427Z,20.33
2022-08-17T15:22:44.090Z,21.98
2022-08-17T15:25:11.081Z,22.05
2022-08-17T15:27:38.012Z,22.95
2022-08-17T15:30:07.170Z,21.45
2022-08-17T15:32:36.181Z,20.23
2022-08-17T15:35:03.931Z,19.90
2022-08-17T15:37:32.141Z,19.75
2022-08-17T15:40:01.182Z,21.85
2022-08-17T15:42:29.227Z,23.25
2022-08-17T15:44:55.845Z,30.05
2022-08-17T15:47:22.709Z,19.20
2022-08-17T15:49:49.341Z,20.85
2022-08-17T15:52:17.179Z,20.27
2022-08-17T15:54:48.683Z,21.27
2022-08-17T15:57:15.259Z,20.00
2022-08-17T15:59:41.990Z,19.95
2022-08-17T16:03:15.178Z,21.35
2022-08-17T16:05:10.149Z,24.60
2022-08-17T16:07:37.498Z,21.90
2022-08-17T16:10:06.301Z,21.25
2022-08-17T16:12:34.579Z,24.00
2022-08-17T16:15:02.110Z,20.33
2022-08-17T16:17:38.784Z,19.75
2022-08-17T16:20:07.803Z,20.65
2022-08-17T16:22:37.389Z,22.73
2022-08-17T16:25:10.091Z,27.80
2022-08-17T16:27:36.721Z,23.75
2022-08-17T16:30:05.106Z,21.65
2022-08-17T16:32:32.976Z,24.55
2022-08-17T16:35:03.963Z,22.05
2022-08-17T16:37:34.322Z,21.63
2022-08-17T16:40:01.930Z,19.40
2022-08-17T16:42:32.554Z,21.67
2022-08-17T16:45:05.033Z,22.58
2022-08-17T16:47:31.663Z,20.48
2022-08-17T16:49:58.216Z,18.30
2022-08-17T16:52:32.866Z,17.27
2022-08-17T16:55:00.928Z,21.15
2022-08-17T16:57:27.853Z,18.15
2022-08-17T16:59:54.496Z,16.70
2022-08-17T17:02:34.891Z,20.77
2022-08-17T17:05:07.959Z,21.55
2022-08-17T17:07:44.018Z,19.92
2022-08-17T17:10:13.030Z,20.58
2022-08-17T17:13:03.489Z,19.85
2022-08-17T17:15:43.584Z,17.98
2022-08-17T17:18:12.286Z,17.25
2022-08-17T17:20:49.678Z,17.52
2022-08-17T17:23:37.462Z,18.70
2022-08-17T17:26:04.031Z,16.77
2022-08-17T17:28:36.195Z,18.55
2022-08-17T17:31:10.605Z,16.63
2022-08-17T17:33:44.407Z,16.50
2022-08-17T17:36:22.593Z,15.82
2022-08-17T17:38:53.365Z,17.20
2022-08-17T17:41:43.212Z,17.02
2022-08-17T17:44:12.106Z,17.33
2022-08-17T17:46:40.682Z,15.38
2022-08-17T17:49:09.561Z,16.23
2022-08-17T17:51:55.722Z,15.18
2022-08-17T17:54:32.497Z,17.60
2022-08-17T17:57:06.251Z,15.25
2022-08-17T17:59:43.930Z,15.43
2022-08-17T18:02:45.414Z,14.57
2022-08-17T18:05:26.564Z,14.77
2022-08-17T18:08:04.701Z,15.07
2022-08-17T18:10:55.698Z,13.05
2022-08-17T18:13:26.639Z,14.98
2022-08-17T18:15:54.435Z,15.40
2022-08-17T18:18:37.703Z,14.63
2022-08-17T18:21:15.820Z,13.32
2022-08-17T18:23:51.276Z,15.65
2022-08-17T18:26:32.939Z,13.85
2022-08-17T18:29:11.448Z,14.70
2022-08-17T18:31:38.164Z,14.15
2022-08-17T18:34:43.830Z,16.30
2022-08-17T18:37:08.431Z,13.70
2022-08-17T18:39:37.262Z,16.10
2022-08-17T18:42:04.758Z,13.73
2022-08-17T18:44:42.290Z,13.52
2022-08-17T18:47:17.552Z,13.90
2022-08-17T18:49:46.792Z,13.18
2022-08-17T18:52:32.873Z,15.43
2022-08-17T18:55:01.606Z,12.55
2022-08-17T18:57:48.388Z,13.95
2022-08-17T19:00:17.009Z,14.68
2022-08-17T19:03:12.211Z,15.20
2022-08-17T19:05:40.825Z,14.13
2022-08-17T19:08:26.428Z,13.80
2022-08-17T19:10:58.793Z,12.70
2022-08-17T19:13:48.429Z,13.43
2022-08-17T19:16:28.390Z,12.68
2022-08-17T19:18:54.945Z,13.52
2022-08-17T19:21:23.893Z,15.60
2022-08-17T19:23:54.164Z,13.18
2022-08-17T19:26:54.572Z,19.48
2022-08-17T19:29:16.545Z,13.93
2022-08-17T19:31:46.396Z,13.88
2022-08-17T19:34:17.111Z,16.10
2022-08-17T19:37:10.018Z,13.57
2022-08-17T19:39:48.625Z,15.07
2022-08-17T19:42:25.883Z,14.95
2022-08-17T19:45:02.971Z,17.33
2022-08-17T19:47:55.050Z,13.35
2022-08-17T19:50:49.675Z,14.82
2022-08-17T19:53:36.700Z,14.35
2022-08-17T19:56:24.095Z,16.20
2022-08-17T19:58:51.424Z,12.15
2022-08-17T20:01:44.609Z,11.73
2022-08-17T20:04:32.672Z,13.43
2022-08-17T20:07:04.501Z,12.00
2022-08-17T20:09:36.381Z,12.93
2022-08-17T20:12:23.472Z,11.80
2022-08-17T20:14:55.902Z,13.65
2022-08-17T20:17:30.252Z,11.90
2022-08-17T20:20:00.216Z,17.30
2022-08-17T20:22:53.133Z,14.20
2022-08-17T20:25:31.042Z,19.48
2022-08-17T20:28:07.799Z,19.17
2022-08-17T20:30:40.215Z,15.93
2022-08-17T20:33:08.367Z,20.63
2022-08-17T20:35:40.384Z,20.93
2022-08-17T20:38:10.518Z,19.95
2022-08-17T20:40:39.111Z,20.52
2022-08-17T20:43:44.483Z,23.67
2022-08-17T20:46:26.846Z,16.58
2022-08-17T20:48:55.590Z,23.50
2022-08-17T20:51:26.141Z,22.35
2022-08-17T20:53:55.611Z,19.90
2022-08-17T20:56:43.602Z,22.25
2022-08-17T20:59:39.362Z,20.83
2022-08-17T21:02:18.472Z,21.92
2022-08-17T21:04:57.339Z,16.67
2022-08-17T21:07:43.160Z,15.52
2022-08-17T21:10:10.417Z,20.48
2022-08-17T21:12:49.763Z,21.85
2022-08-17T21:15:28.505Z,18.00
2022-08-17T21:18:02.924Z,16.83
2022-08-17T21:20:32.520Z,14.52
2022-08-17T21:23:08.671Z,14.10
2022-08-17T21:25:48.864Z,16.25
2022-08-17T21:28:21.612Z,12.95
2022-08-17T21:30:54.053Z,12.00
2022-08-17T21:33:24.913Z,14.73
2022-08-17T21:36:00.247Z,20.30
2022-08-17T21:38:59.952Z,19.17
2022-08-17T21:41:29.865Z,17.95
2022-08-17T21:44:07.719Z,16.80
2022-08-17T21:46:37.719Z,16.17
2022-08-17T21:49:13.420Z,16.30
2022-08-17T21:52:06.832Z,20.75
2022-08-17T21:54:35.697Z,19.80
2022-08-17T21:57:04.039Z,20.05
2022-08-17T21:59:32.998Z,18.63
2022-08-17T22:02:00.906Z,21.52
2022-08-17T22:04:32.299Z,22.98
2022-08-17T22:07:00.312Z,21.65
2022-08-17T22:09:29.033Z,21.27
2022-08-17T22:12:00.959Z,22.60
2022-08-17T22:14:51.708Z,22.77
2022-08-17T22:17:23.246Z,25.33
2022-08-17T22:19:52.256Z,20.92
2022-08-17T22:22:27.879Z,15.95
2022-08-17T22:24:57.608Z,16.50
2022-08-17T22:27:42.930Z,14.18
2022-08-17T22:30:28.427Z,15.57
2022-08-17T22:32:55.675Z,11.63
2022-08-17T22:35:33.542Z,15.07
2022-08-17T22:38:24.848Z,16.30
2022-08-17T22:40:53.826Z,16.40
2022-08-17T22:43:26.025Z,18.63
2022-08-17T22:45:54.561Z,13.48
2022-08-17T22:48:23.322Z,14.70
2022-08-17T22:51:03.731Z,18.27
2022-08-17T22:54:04.479Z,19.20
2022-08-17T22:56:49.847Z,20.65
2022-08-17T22:59:32.683Z,15.05
2022-08-17T23:02:14.073Z,17.88
2022-08-17T23:04:42.565Z,17.40
2022-08-17T23:07:09.217Z,15.40
2022-08-17T23:09:39.384Z,20.95
2022-08-17T23:12:11.680Z,16.50
2022-08-17T23:14:39.682Z,19.15
2022-08-17T23:17:07.002Z,14.75
2022-08-17T23:19:33.680Z,14.63
2022-08-17T23:22:01.902Z,16.83
2022-08-17T23:24:33.281Z,19.02
2022-08-17T23:26:59.915Z,16.90
2022-08-17T23:29:29.404Z,13.85
2022-08-17T23:31:57.903Z,12.50
2022-08-17T23:34:25.729Z,14.32
2022-08-17T23:36:53.161Z,13.38
2022-08-17T23:39:24.514Z,15.63
2022-08-17T23:41:59.000Z,13.63
2022-08-17T23:44:26.157Z,20.98
2022-08-17T23:46:55.687Z,24.85
2022-08-17T23:49:25.298Z,24.67
2022-08-17T23:51:55.177Z,17.83
2022-08-17T23:54:29.965Z,27.92
2022-08-17T23:56:56.567Z,23.02
2022-08-17T23:59:23.269Z,23.13
